createdAt,value
2019-05-02T00:00:07.072Z,1.04
2019-05-02T00:15:07.141Z,1.02
2019-05-02T00:30:07.185Z,1
2019-05-02T00:45:07.298Z,0.99
2019-05-02T01:00:13.229Z,0.98
2019-05-02T01:15:09.700Z,1.04
2019-05-02T01:30:09.409Z,1.02
2019-05-02T01:45:11.122Z,0.97
2019-05-02T02:00:11.409Z,1.07
2019-05-02T02:15:10.233Z,1.27
2019-05-02T02:30:09.829Z,1.08
2019-05-02T02:45:12.771Z,1.06
2019-05-02T03:00:10.996Z,1.02
2019-05-02T03:15:10.010Z,1.15
2019-05-02T03:30:28.709Z,1.08
2019-05-02T03:45:11.888Z,1.02
2019-05-02T04:00:13.550Z,1.01
2019-05-02T04:15:12.401Z,1.21
2019-05-02T04:30:14.155Z,1.02
2019-05-02T04:45:24.758Z,1.05
2019-05-02T05:00:10.583Z,1.02
2019-05-02T05:15:07.805Z,1.29
2019-05-02T05:30:11.047Z,1.17
2019-05-02T05:45:09.541Z,1.01
2019-05-02T06:00:09.327Z,1.2
2019-05-02T06:15:06.011Z,1.57
2019-05-02T06:30:06.034Z,1.17
2019-05-02T06:45:06.318Z,1.12
2019-05-02T07:00:06.637Z,1.24
2019-05-02T07:15:08.274Z,1.52
2019-05-02T07:30:06.696Z,1.46
2019-05-02T07:45:09.240Z,1.21
2019-05-02T08:00:07.785Z,1.25
2019-05-02T08:15:12.528Z,1.31
2019-05-02T08:30:07.437Z,1.48
2019-05-02T08:45:07.498Z,1.44
2019-05-02T09:00:07.553Z,1.25
2019-05-02T09:15:08.732Z,1.33
2019-05-02T09:30:08.602Z,1.51
2019-05-02T09:45:08.627Z,1.35
2019-05-02T10:00:08.731Z,1.21
2019-05-02T10:15:08.788Z,1.19
2019-05-02T10:30:13.316Z,1.36
2019-05-02T10:45:12.836Z,1.3
2019-05-02T11:00:13.153Z,1.18
2019-05-02T11:15:03.336Z,1.42
2019-05-02T11:30:03.605Z,1.66
2019-05-02T11:45:03.466Z,1.46
2019-05-02T12:00:07.014Z,1.4
2019-05-02T12:15:03.533Z,1.44
2019-05-02T12:30:03.609Z,1.6
2019-05-02T12:45:03.698Z,1.33
2019-05-02T13:00:05.137Z,1.27
2019-05-02T13:15:04.720Z,1.16
2019-05-02T13:30:05.347Z,1.44
2019-05-02T13:45:05.692Z,2.66
2019-05-02T14:00:05.733Z,2.24
2019-05-02T14:15:06.924Z,1.94
2019-05-02T14:30:08.661Z,1.88
2019-05-02T14:45:12.074Z,1.74
2019-05-02T15:00:07.559Z,1.55
2019-05-02T15:15:07.572Z,1.44
2019-05-02T15:30:07.607Z,1.67
2019-05-02T15:45:09.481Z,1.58
2019-05-02T16:00:09.709Z,1.52
2019-05-02T16:15:18.020Z,1.48
2019-05-02T16:30:11.292Z,1.69
2019-05-02T16:45:11.744Z,1.44
2019-05-02T17:00:11.332Z,1.36
2019-05-02T17:15:04.692Z,1.38
2019-05-02T17:30:04.812Z,1.53
2019-05-02T17:45:05.792Z,1.56
2019-05-02T18:00:12.947Z,1.38
2019-05-02T18:15:08.124Z,1.37
2019-05-02T18:30:08.288Z,1.35
2019-05-02T18:45:08.267Z,1.48
2019-05-02T19:00:08.285Z,1.42
2019-05-02T19:15:08.352Z,1.39
2019-05-02T19:30:08.600Z,1.28
2019-05-02T19:45:11.383Z,1.4
2019-05-02T20:00:08.543Z,1.29
2019-05-02T20:15:08.829Z,1.19
2019-05-02T20:30:11.983Z,1.16
2019-05-02T20:45:11.617Z,1.44
2019-05-02T21:00:12.204Z,1.29
2019-05-02T21:15:12.432Z,1.26
2019-05-02T21:30:12.301Z,1.34
2019-05-02T21:45:12.672Z,1.52
2019-05-02T22:00:11.643Z,1.29
2019-05-02T22:15:12.710Z,1.22
2019-05-02T22:30:12.345Z,1.09
2019-05-02T22:45:04.516Z,1.33
2019-05-02T23:00:05.457Z,1.22
2019-05-02T23:15:04.051Z,1.36
2019-05-02T23:30:04.093Z,1.42
2019-05-02T23:45:04.333Z,1.51
